sensor_id;sensor_type;location;lat;lon;timestamp;temperature;humidity
43143;DHT22;28750;59.842;17.584;2022-09-03T00:00:10;6.00;99.90
43143;DHT22;28750;59.842;17.584;2022-09-03T00:08:36;6.30;99.90
43143;DHT22;28750;59.842;17.584;2022-09-03T00:13:44;6.30;99.90
43143;DHT22;28750;59.842;17.584;2022-09-03T00:16:16;6.40;99.90
43143;DHT22;28750;59.842;17.584;2022-09-03T00:18:56;6.40;99.90
43143;DHT22;28750;59.842;17.584;2022-09-03T00:21:38;6.30;99.90
43143;DHT22;28750;59.842;17.584;2022-09-03T00:24:11;6.40;99.90
43143;DHT22;28750;59.842;17.584;2022-09-03T00:26:51;6.40;99.90
43143;DHT22;28750;59.842;17.584;2022-09-03T00:29:27;6.40;99.90
43143;DHT22;28750;59.842;17.584;2022-09-03T00:32:01;6.40;99.90
43143;DHT22;28750;59.842;17.584;2022-09-03T00:34:38;6.40;99.90
43143;DHT22;28750;59.842;17.584;2022-09-03T00:37:09;6.40;99.90
43143;DHT22;28750;59.842;17.584;2022-09-03T00:39:37;6.40;99.90
43143;DHT22;28750;59.842;17.584;2022-09-03T00:42:26;6.50;99.90
43143;DHT22;28750;59.842;17.584;2022-09-03T00:53:08;6.50;99.90
43143;DHT22;28750;59.842;17.584;2022-09-03T00:56:03;6.50;99.90
43143;DHT22;28750;59.842;17.584;2022-09-03T00:58:54;6.50;99.90
43143;DHT22;28750;59.842;17.584;2022-09-03T01:01:49;6.60;99.90
43143;DHT22;28750;59.842;17.584;2022-09-03T01:08:26;6.40;99.90
43143;DHT22;28750;59.842;17.584;2022-09-03T01:11:00;6.50;99.90
43143;DHT22;28750;59.842;17.584;2022-09-03T01:13:40;6.40;99.90
43143;DHT22;28750;59.842;17.584;2022-09-03T01:16:34;6.40;99.90
43143;DHT22;28750;59.842;17.584;2022-09-03T01:30:23;6.70;99.90
43143;DHT22;28750;59.842;17.584;2022-09-03T01:33:11;6.70;99.90
43143;DHT22;28750;59.842;17.584;2022-09-03T01:38:54;6.80;99.90
43143;DHT22;28750;59.842;17.584;2022-09-03T01:47:41;6.80;99.90
43143;DHT22;28750;59.842;17.584;2022-09-03T01:53:02;6.90;99.90
43143;DHT22;28750;59.842;17.584;2022-09-03T01:58:50;6.90;99.90
43143;DHT22;28750;59.842;17.584;2022-09-03T02:01:33;7.00;99.90
43143;DHT22;28750;59.842;17.584;2022-09-03T02:04:14;7.00;99.90
43143;DHT22;28750;59.842;17.584;2022-09-03T02:06:42;7.00;99.90
43143;DHT22;28750;59.842;17.584;2022-09-03T02:09:15;7.00;99.90
43143;DHT22;28750;59.842;17.584;2022-09-03T02:11:44;7.00;99.90
43143;DHT22;28750;59.842;17.584;2022-09-03T02:14:12;7.20;99.90
43143;DHT22;28750;59.842;17.584;2022-09-03T02:16:39;7.10;99.90
43143;DHT22;28750;59.842;17.584;2022-09-03T02:19:11;7.10;99.90
43143;DHT22;28750;59.842;17.584;2022-09-03T02:21:46;7.10;99.90
43143;DHT22;28750;59.842;17.584;2022-09-03T02:24:16;7.10;99.90
43143;DHT22;28750;59.842;17.584;2022-09-03T02:26:43;7.10;99.90
43143;DHT22;28750;59.842;17.584;2022-09-03T02:29:12;7.20;99.90
43143;DHT22;28750;59.842;17.584;2022-09-03T02:31:39;7.20;99.90
43143;DHT22;28750;59.842;17.584;2022-09-03T02:34:07;7.20;99.90
43143;DHT22;28750;59.842;17.584;2022-09-03T02:36:37;7.10;99.90
43143;DHT22;28750;59.842;17.584;2022-09-03T02:39:05;7.10;99.90
43143;DHT22;28750;59.842;17.584;2022-09-03T02:41:32;7.20;99.90
43143;DHT22;28750;59.842;17.584;2022-09-03T02:44:12;7.20;99.90
43143;DHT22;28750;59.842;17.584;2022-09-03T02:46:51;7.20;99.90
43143;DHT22;28750;59.842;17.584;2022-09-03T02:49:19;7.20;99.90
43143;DHT22;28750;59.842;17.584;2022-09-03T02:51:46;7.10;99.90
43143;DHT22;28750;59.842;17.584;2022-09-03T02:54:13;7.20;99.90
43143;DHT22;28750;59.842;17.584;2022-09-03T02:56:40;7.30;99.90
43143;DHT22;28750;59.842;17.584;2022-09-03T02:59:08;7.30;99.90
43143;DHT22;28750;59.842;17.584;2022-09-03T03:01:35;7.30;99.90
43143;DHT22;28750;59.842;17.584;2022-09-03T03:04:03;7.30;99.90
43143;DHT22;28750;59.842;17.584;2022-09-03T03:06:30;7.30;99.90
43143;DHT22;28750;59.842;17.584;2022-09-03T03:08:57;7.30;99.90
43143;DHT22;28750;59.842;17.584;2022-09-03T03:11:28;7.20;99.90
43143;DHT22;28750;59.842;17.584;2022-09-03T03:13:55;7.30;99.90
43143;DHT22;28750;59.842;17.584;2022-09-03T03:16:22;7.30;99.90
43143;DHT22;28750;59.842;17.584;2022-09-03T03:18:50;7.30;99.90
43143;DHT22;28750;59.842;17.584;2022-09-03T03:21:17;7.30;99.90
43143;DHT22;28750;59.842;17.584;2022-09-03T03:23:44;7.20;99.90
43143;DHT22;28750;59.842;17.584;2022-09-03T03:26:15;7.30;99.90
43143;DHT22;28750;59.842;17.584;2022-09-03T03:28:43;7.40;99.90
43143;DHT22;28750;59.842;17.584;2022-09-03T03:31:16;7.30;99.90
43143;DHT22;28750;59.842;17.584;2022-09-03T03:33:49;7.30;99.90
43143;DHT22;28750;59.842;17.584;2022-09-03T03:36:16;7.30;99.90
43143;DHT22;28750;59.842;17.584;2022-09-03T03:38:44;7.20;99.90
43143;DHT22;28750;59.842;17.584;2022-09-03T03:41:19;7.30;99.90
43143;DHT22;28750;59.842;17.584;2022-09-03T03:43:47;7.40;99.90
43143;DHT22;28750;59.842;17.584;2022-09-03T03:46:18;7.40;99.90
43143;DHT22;28750;59.842;17.584;2022-09-03T03:48:47;7.40;99.90
43143;DHT22;28750;59.842;17.584;2022-09-03T03:51:14;7.40;99.90
43143;DHT22;28750;59.842;17.584;2022-09-03T03:53:41;7.40;99.90
43143;DHT22;28750;59.842;17.584;2022-09-03T03:56:11;7.50;99.90
43143;DHT22;28750;59.842;17.584;2022-09-03T03:58:40;7.60;99.90
43143;DHT22;28750;59.842;17.584;2022-09-03T04:01:13;7.30;99.90
43143;DHT22;28750;59.842;17.584;2022-09-03T04:03:41;7.40;99.90
43143;DHT22;28750;59.842;17.584;2022-09-03T04:06:10;7.40;99.90
43143;DHT22;28750;59.842;17.584;2022-09-03T04:08:39;7.40;99.90
43143;DHT22;28750;59.842;17.584;2022-09-03T04:11:09;7.40;99.90
43143;DHT22;28750;59.842;17.584;2022-09-03T04:13:38;7.60;99.90
43143;DHT22;28750;59.842;17.584;2022-09-03T04:16:08;7.60;99.90
43143;DHT22;28750;59.842;17.584;2022-09-03T04:18:37;7.60;99.90
43143;DHT22;28750;59.842;17.584;2022-09-03T04:21:13;7.70;99.90
43143;DHT22;28750;59.842;17.584;2022-09-03T04:23:43;7.60;99.90
43143;DHT22;28750;59.842;17.584;2022-09-03T04:26:13;7.70;99.90
43143;DHT22;28750;59.842;17.584;2022-09-03T04:28:40;7.70;99.90
43143;DHT22;28750;59.842;17.584;2022-09-03T04:31:11;7.70;99.90
43143;DHT22;28750;59.842;17.584;2022-09-03T04:33:39;7.70;99.90
43143;DHT22;28750;59.842;17.584;2022-09-03T04:38:39;7.80;99.90
43143;DHT22;28750;59.842;17.584;2022-09-03T04:41:10;7.90;99.90
43143;DHT22;28750;59.842;17.584;2022-09-03T04:43:38;7.90;99.90
43143;DHT22;28750;59.842;17.584;2022-09-03T04:46:07;7.90;99.90
43143;DHT22;28750;59.842;17.584;2022-09-03T04:48:35;7.90;99.90
43143;DHT22;28750;59.842;17.584;2022-09-03T04:51:14;8.00;99.90
43143;DHT22;28750;59.842;17.584;2022-09-03T04:53:43;7.90;99.90
43143;DHT22;28750;59.842;17.584;2022-09-03T04:56:16;7.90;99.90
43143;DHT22;28750;59.842;17.584;2022-09-03T04:58:44;8.00;99.90
43143;DHT22;28750;59.842;17.584;2022-09-03T05:01:17;8.10;99.90
43143;DHT22;28750;59.842;17.584;2022-09-03T05:03:45;8.10;99.90
43143;DHT22;28750;59.842;17.584;2022-09-03T05:06:13;8.10;99.90
43143;DHT22;28750;59.842;17.584;2022-09-03T05:08:42;8.10;99.90
43143;DHT22;28750;59.842;17.584;2022-09-03T05:11:10;8.20;99.90
43143;DHT22;28750;59.842;17.584;2022-09-03T05:13:37;8.20;99.90
43143;DHT22;28750;59.842;17.584;2022-09-03T05:16:07;8.30;99.90
43143;DHT22;28750;59.842;17.584;2022-09-03T05:18:35;8.30;99.90
43143;DHT22;28750;59.842;17.584;2022-09-03T05:21:05;8.30;99.90
43143;DHT22;28750;59.842;17.584;2022-09-03T05:23:37;8.30;99.90
43143;DHT22;28750;59.842;17.584;2022-09-03T05:26:07;8.30;99.90
43143;DHT22;28750;59.842;17.584;2022-09-03T05:28:37;8.40;99.90
43143;DHT22;28750;59.842;17.584;2022-09-03T05:31:07;8.50;99.90
43143;DHT22;28750;59.842;17.584;2022-09-03T05:33:40;8.40;99.90
43143;DHT22;28750;59.842;17.584;2022-09-03T05:36:10;8.50;99.90
43143;DHT22;28750;59.842;17.584;2022-09-03T05:38:38;8.50;99.90
43143;DHT22;28750;59.842;17.584;2022-09-03T05:41:08;8.50;99.90
43143;DHT22;28750;59.842;17.584;2022-09-03T05:43:36;8.50;99.90
43143;DHT22;28750;59.842;17.584;2022-09-03T05:46:09;8.50;99.90
43143;DHT22;28750;59.842;17.584;2022-09-03T05:48:38;8.50;99.90
43143;DHT22;28750;59.842;17.584;2022-09-03T05:51:17;8.60;99.90
43143;DHT22;28750;59.842;17.584;2022-09-03T05:53:46;8.60;99.90
43143;DHT22;28750;59.842;17.584;2022-09-03T05:56:19;8.70;99.90
43143;DHT22;28750;59.842;17.584;2022-09-03T05:58:51;8.60;99.90
43143;DHT22;28750;59.842;17.584;2022-09-03T06:01:20;8.60;99.90
43143;DHT22;28750;59.842;17.584;2022-09-03T06:04:00;8.70;99.90
43143;DHT22;28750;59.842;17.584;2022-09-03T06:06:29;8.70;99.90
43143;DHT22;28750;59.842;17.584;2022-09-03T06:08:59;8.80;99.90
43143;DHT22;28750;59.842;17.584;2022-09-03T06:11:27;8.90;99.90
43143;DHT22;28750;59.842;17.584;2022-09-03T06:13:56;8.90;99.90
43143;DHT22;28750;59.842;17.584;2022-09-03T06:16:26;9.00;99.90
43143;DHT22;28750;59.842;17.584;2022-09-03T06:18:53;9.10;99.90
43143;DHT22;28750;59.842;17.584;2022-09-03T06:21:20;8.90;99.90
43143;DHT22;28750;59.842;17.584;2022-09-03T06:23:51;9.00;99.90
43143;DHT22;28750;59.842;17.584;2022-09-03T06:26:19;9.20;99.90
43143;DHT22;28750;59.842;17.584;2022-09-03T06:28:46;9.40;99.90
43143;DHT22;28750;59.842;17.584;2022-09-03T06:31:18;9.40;99.90
43143;DHT22;28750;59.842;17.584;2022-09-03T06:33:45;9.60;99.90
43143;DHT22;28750;59.842;17.584;2022-09-03T06:36:14;9.50;99.90
43143;DHT22;28750;59.842;17.584;2022-09-03T06:38:42;9.40;99.90
43143;DHT22;28750;59.842;17.584;2022-09-03T06:41:11;9.50;99.90
43143;DHT22;28750;59.842;17.584;2022-09-03T06:43:41;9.60;99.90
43143;DHT22;28750;59.842;17.584;2022-09-03T06:46:11;9.80;99.90
43143;DHT22;28750;59.842;17.584;2022-09-03T06:48:39;10.00;99.90
43143;DHT22;28750;59.842;17.584;2022-09-03T06:51:14;10.10;99.90
43143;DHT22;28750;59.842;17.584;2022-09-03T06:53:44;10.20;99.90
43143;DHT22;28750;59.842;17.584;2022-09-03T06:56:20;10.10;99.90
43143;DHT22;28750;59.842;17.584;2022-09-03T06:58:54;10.10;99.90
43143;DHT22;28750;59.842;17.584;2022-09-03T07:01:25;10.20;99.90
43143;DHT22;28750;59.842;17.584;2022-09-03T07:03:54;10.30;99.90
43143;DHT22;28750;59.842;17.584;2022-09-03T07:06:23;10.30;99.90
43143;DHT22;28750;59.842;17.584;2022-09-03T07:08:52;10.30;99.90
43143;DHT22;28750;59.842;17.584;2022-09-03T07:11:21;10.40;99.90
43143;DHT22;28750;59.842;17.584;2022-09-03T07:13:50;10.40;99.90
43143;DHT22;28750;59.842;17.584;2022-09-03T07:16:23;10.40;99.90
43143;DHT22;28750;59.842;17.584;2022-09-03T07:18:51;10.50;99.90
43143;DHT22;28750;59.842;17.584;2022-09-03T07:21:20;10.40;99.90
43143;DHT22;28750;59.842;17.584;2022-09-03T07:23:48;10.40;99.90
43143;DHT22;28750;59.842;17.584;2022-09-03T07:26:25;10.50;99.90
43143;DHT22;28750;59.842;17.584;2022-09-03T07:28:53;10.50;99.90
43143;DHT22;28750;59.842;17.584;2022-09-03T07:31:26;10.50;99.90
43143;DHT22;28750;59.842;17.584;2022-09-03T07:33:57;10.50;99.90
43143;DHT22;28750;59.842;17.584;2022-09-03T07:36:28;10.50;99.90
43143;DHT22;28750;59.842;17.584;2022-09-03T07:38:57;10.50;99.90
43143;DHT22;28750;59.842;17.584;2022-09-03T07:41:25;10.50;99.90
43143;DHT22;28750;59.842;17.584;2022-09-03T07:43:53;10.60;99.90
43143;DHT22;28750;59.842;17.584;2022-09-03T07:46:25;10.60;99.90
43143;DHT22;28750;59.842;17.584;2022-09-03T07:48:53;10.60;99.90
43143;DHT22;28750;59.842;17.584;2022-09-03T07:51:22;10.70;99.90
43143;DHT22;28750;59.842;17.584;2022-09-03T07:53:53;10.80;99.90
43143;DHT22;28750;59.842;17.584;2022-09-03T07:56:20;10.60;99.90
43143;DHT22;28750;59.842;17.584;2022-09-03T07:58:47;10.70;99.90
43143;DHT22;28750;59.842;17.584;2022-09-03T08:01:19;10.70;99.90
43143;DHT22;28750;59.842;17.584;2022-09-03T08:03:51;10.80;99.90
43143;DHT22;28750;59.842;17.584;2022-09-03T08:06:21;10.90;99.90
43143;DHT22;28750;59.842;17.584;2022-09-03T08:08:52;11.10;99.90
43143;DHT22;28750;59.842;17.584;2022-09-03T08:11:21;11.20;99.90
43143;DHT22;28750;59.842;17.584;2022-09-03T08:16:22;11.10;99.90
43143;DHT22;28750;59.842;17.584;2022-09-03T08:18:49;11.20;99.90
43143;DHT22;28750;59.842;17.584;2022-09-03T08:21:17;11.20;99.90
43143;DHT22;28750;59.842;17.584;2022-09-03T08:23:50;11.20;99.90
43143;DHT22;28750;59.842;17.584;2022-09-03T08:26:18;11.20;99.90
43143;DHT22;28750;59.842;17.584;2022-09-03T08:28:46;11.10;99.90
43143;DHT22;28750;59.842;17.584;2022-09-03T08:31:18;11.10;99.90
43143;DHT22;28750;59.842;17.584;2022-09-03T08:33:50;11.10;99.90
43143;DHT22;28750;59.842;17.584;2022-09-03T08:36:20;11.20;99.90
43143;DHT22;28750;59.842;17.584;2022-09-03T08:38:48;11.30;99.90
43143;DHT22;28750;59.842;17.584;2022-09-03T08:41:22;11.40;99.90
43143;DHT22;28750;59.842;17.584;2022-09-03T08:44:05;11.50;99.90
43143;DHT22;28750;59.842;17.584;2022-09-03T08:47:08;11.60;99.90
43143;DHT22;28750;59.842;17.584;2022-09-03T08:55:30;11.80;93.90
43143;DHT22;28750;59.842;17.584;2022-09-03T08:58:16;11.90;99.90
43143;DHT22;28750;59.842;17.584;2022-09-03T09:01:22;12.10;99.90
43143;DHT22;28750;59.842;17.584;2022-09-03T09:07:16;12.70;99.00
43143;DHT22;28750;59.842;17.584;2022-09-03T09:10:30;12.90;60.00
43143;DHT22;28750;59.842;17.584;2022-09-03T09:15:42;12.80;1.00
43143;DHT22;28750;59.842;17.584;2022-09-03T09:21:07;13.00;99.90
43143;DHT22;28750;59.842;17.584;2022-09-03T09:23:48;12.80;99.90
43143;DHT22;28750;59.842;17.584;2022-09-03T09:26:18;12.70;99.90
43143;DHT22;28750;59.842;17.584;2022-09-03T09:29:08;13.00;1.00
43143;DHT22;28750;59.842;17.584;2022-09-03T09:31:36;13.00;99.90
43143;DHT22;28750;59.842;17.584;2022-09-03T09:34:06;12.90;66.00
43143;DHT22;28750;59.842;17.584;2022-09-03T09:36:52;12.80;99.90
43143;DHT22;28750;59.842;17.584;2022-09-03T09:39:20;12.50;99.90
43143;DHT22;28750;59.842;17.584;2022-09-03T09:42:01;12.40;99.90
43143;DHT22;28750;59.842;17.584;2022-09-03T09:44:35;12.40;99.90
43143;DHT22;28750;59.842;17.584;2022-09-03T09:49:37;12.50;1.00
43143;DHT22;28750;59.842;17.584;2022-09-03T09:52:11;12.40;99.90
43143;DHT22;28750;59.842;17.584;2022-09-03T09:54:41;12.40;91.20
43143;DHT22;28750;59.842;17.584;2022-09-03T09:57:20;12.30;99.90
43143;DHT22;28750;59.842;17.584;2022-09-03T09:59:48;12.40;99.90
43143;DHT22;28750;59.842;17.584;2022-09-03T10:02:26;12.50;99.90
43143;DHT22;28750;59.842;17.584;2022-09-03T10:05:20;12.50;1.00
43143;DHT22;28750;59.842;17.584;2022-09-03T10:07:58;12.60;99.90
43143;DHT22;28750;59.842;17.584;2022-09-03T10:10:27;12.70;99.90
43143;DHT22;28750;59.842;17.584;2022-09-03T10:13:37;12.80;99.90
43143;DHT22;28750;59.842;17.584;2022-09-03T10:16:32;12.90;95.80
43143;DHT22;28750;59.842;17.584;2022-09-03T10:19:06;13.00;1.00
43143;DHT22;28750;59.842;17.584;2022-09-03T10:21:57;13.10;99.90
43143;DHT22;28750;59.842;17.584;2022-09-03T10:24:34;13.20;25.10
43143;DHT22;28750;59.842;17.584;2022-09-03T10:27:09;13.10;99.90
43143;DHT22;28750;59.842;17.584;2022-09-03T10:29:39;13.20;99.90
43143;DHT22;28750;59.842;17.584;2022-09-03T10:32:30;13.30;99.90
43143;DHT22;28750;59.842;17.584;2022-09-03T10:56:41;13.40;99.90
43143;DHT22;28750;59.842;17.584;2022-09-03T10:59:27;13.50;99.90
43143;DHT22;28750;59.842;17.584;2022-09-03T11:04:55;15.20;99.90
43143;DHT22;28750;59.842;17.584;2022-09-03T11:07:31;15.10;99.90
43143;DHT22;28750;59.842;17.584;2022-09-03T11:13:40;15.70;99.90
43143;DHT22;28750;59.842;17.584;2022-09-03T11:16:22;15.30;99.90
43143;DHT22;28750;59.842;17.584;2022-09-03T11:18:56;15.30;99.90
43143;DHT22;28750;59.842;17.584;2022-09-03T11:21:27;15.20;99.90
43143;DHT22;28750;59.842;17.584;2022-09-03T11:24:25;15.10;99.90
43143;DHT22;28750;59.842;17.584;2022-09-03T11:29:52;15.30;99.90
43143;DHT22;28750;59.842;17.584;2022-09-03T11:34:59;14.70;99.90
43143;DHT22;28750;59.842;17.584;2022-09-03T11:37:28;14.60;99.90
43143;DHT22;28750;59.842;17.584;2022-09-03T11:42:36;14.60;99.90
43143;DHT22;28750;59.842;17.584;2022-09-03T11:47:55;15.00;1.00
43143;DHT22;28750;59.842;17.584;2022-09-03T11:50:32;15.00;99.90
43143;DHT22;28750;59.842;17.584;2022-09-03T11:53:25;14.80;99.90
43143;DHT22;28750;59.842;17.584;2022-09-03T11:58:36;14.10;99.90
43143;DHT22;28750;59.842;17.584;2022-09-03T12:01:09;14.00;99.90
43143;DHT22;28750;59.842;17.584;2022-09-03T12:03:50;14.10;78.40
43143;DHT22;28750;59.842;17.584;2022-09-03T12:18:14;13.90;1.00
43143;DHT22;28750;59.842;17.584;2022-09-03T12:23:33;13.60;6.50
43143;DHT22;28750;59.842;17.584;2022-09-03T12:26:08;13.60;99.90
43143;DHT22;28750;59.842;17.584;2022-09-03T12:28:40;13.60;99.90
43143;DHT22;28750;59.842;17.584;2022-09-03T12:31:17;13.80;99.90
43143;DHT22;28750;59.842;17.584;2022-09-03T12:34:06;13.90;99.90
43143;DHT22;28750;59.842;17.584;2022-09-03T12:36:41;13.80;23.50
43143;DHT22;28750;59.842;17.584;2022-09-03T12:39:19;13.90;99.90
43143;DHT22;28750;59.842;17.584;2022-09-03T12:41:58;13.80;66.90
43143;DHT22;28750;59.842;17.584;2022-09-03T12:49:42;13.70;99.90
43143;DHT22;28750;59.842;17.584;2022-09-03T12:52:35;13.80;99.90
43143;DHT22;28750;59.842;17.584;2022-09-03T13:00:56;13.90;99.90
43143;DHT22;28750;59.842;17.584;2022-09-03T13:06:17;14.10;99.90
43143;DHT22;28750;59.842;17.584;2022-09-03T13:08:46;14.00;99.90
43143;DHT22;28750;59.842;17.584;2022-09-03T13:11:21;14.10;99.90
43143;DHT22;28750;59.842;17.584;2022-09-03T13:14:00;14.20;99.90
43143;DHT22;28750;59.842;17.584;2022-09-03T13:16:59;14.00;36.40
43143;DHT22;28750;59.842;17.584;2022-09-03T13:20:11;14.00;93.70
43143;DHT22;28750;59.842;17.584;2022-09-03T13:28:49;14.00;91.50
43143;DHT22;28750;59.842;17.584;2022-09-03T13:31:33;13.90;99.90
43143;DHT22;28750;59.842;17.584;2022-09-03T13:34:30;13.90;39.80
43143;DHT22;28750;59.842;17.584;2022-09-03T13:37:25;14.00;99.90
43143;DHT22;28750;59.842;17.584;2022-09-03T13:40:02;13.80;99.90
43143;DHT22;28750;59.842;17.584;2022-09-03T13:42:42;13.80;99.90
43143;DHT22;28750;59.842;17.584;2022-09-03T13:45:36;13.90;99.90
43143;DHT22;28750;59.842;17.584;2022-09-03T13:48:14;13.80;1.00
43143;DHT22;28750;59.842;17.584;2022-09-03T13:51:02;13.70;99.90
43143;DHT22;28750;59.842;17.584;2022-09-03T13:57:06;13.50;99.90
43143;DHT22;28750;59.842;17.584;2022-09-03T13:59:51;13.50;99.90
43143;DHT22;28750;59.842;17.584;2022-09-03T14:05:11;13.70;1.00
43143;DHT22;28750;59.842;17.584;2022-09-03T14:16:06;13.80;99.90
43143;DHT22;28750;59.842;17.584;2022-09-03T14:18:36;13.90;99.90
43143;DHT22;28750;59.842;17.584;2022-09-03T14:21:30;13.80;99.90
43143;DHT22;28750;59.842;17.584;2022-09-03T14:27:01;13.70;99.90
43143;DHT22;28750;59.842;17.584;2022-09-03T14:29:31;13.50;99.50
43143;DHT22;28750;59.842;17.584;2022-09-03T14:51:05;13.10;1.00
43143;DHT22;28750;59.842;17.584;2022-09-03T14:56:49;13.00;99.90
43143;DHT22;28750;59.842;17.584;2022-09-03T14:59:22;13.10;1.00
43143;DHT22;28750;59.842;17.584;2022-09-03T15:13:14;12.90;99.90
43143;DHT22;28750;59.842;17.584;2022-09-03T15:26:55;12.90;1.00
43143;DHT22;28750;59.842;17.584;2022-09-03T15:40:34;12.80;99.90
43143;DHT22;28750;59.842;17.584;2022-09-03T15:43:15;12.80;99.90
43143;DHT22;28750;59.842;17.584;2022-09-03T15:59:39;12.50;99.90
43143;DHT22;28750;59.842;17.584;2022-09-03T16:10:19;12.60;1.00
43143;DHT22;28750;59.842;17.584;2022-09-03T16:16:04;12.40;99.90
43143;DHT22;28750;59.842;17.584;2022-09-03T16:21:20;12.30;99.90
43143;DHT22;28750;59.842;17.584;2022-09-03T16:24:04;12.30;99.90
43143;DHT22;28750;59.842;17.584;2022-09-03T16:26:39;12.30;99.90
43143;DHT22;28750;59.842;17.584;2022-09-03T16:29:16;12.20;99.90
43143;DHT22;28750;59.842;17.584;2022-09-03T16:32:06;12.20;99.90
43143;DHT22;28750;59.842;17.584;2022-09-03T16:56:36;11.90;99.90
43143;DHT22;28750;59.842;17.584;2022-09-03T16:59:30;12.00;99.90
43143;DHT22;28750;59.842;17.584;2022-09-03T17:16:00;11.80;99.90
43143;DHT22;28750;59.842;17.584;2022-09-03T17:24:43;11.80;99.90
43143;DHT22;28750;59.842;17.584;2022-09-03T17:33:23;11.80;99.90
43143;DHT22;28750;59.842;17.584;2022-09-03T17:35:20;11.70;99.90
43143;DHT22;28750;59.842;17.584;2022-09-03T17:41:02;11.70;99.90
43143;DHT22;28750;59.842;17.584;2022-09-03T17:49:43;11.70;99.90
43143;DHT22;28750;59.842;17.584;2022-09-03T17:57:51;11.70;99.90
43143;DHT22;28750;59.842;17.584;2022-09-03T18:00:23;11.60;99.90
43143;DHT22;28750;59.842;17.584;2022-09-03T18:05:28;11.50;99.90
43143;DHT22;28750;59.842;17.584;2022-09-03T18:08:23;11.60;99.90
43143;DHT22;28750;59.842;17.584;2022-09-03T18:11:10;11.50;99.90
43143;DHT22;28750;59.842;17.584;2022-09-03T18:16:28;11.50;99.90
43143;DHT22;28750;59.842;17.584;2022-09-03T18:19:54;11.50;99.90
43143;DHT22;28750;59.842;17.584;2022-09-03T18:21:57;11.40;99.90
43143;DHT22;28750;59.842;17.584;2022-09-03T18:24:55;11.30;1.00
43143;DHT22;28750;59.842;17.584;2022-09-03T18:27:45;11.40;1.00
43143;DHT22;28750;59.842;17.584;2022-09-03T18:30:32;11.40;1.00
43143;DHT22;28750;59.842;17.584;2022-09-03T18:33:23;11.40;99.90
43143;DHT22;28750;59.842;17.584;2022-09-03T18:36:09;11.40;99.90
43143;DHT22;28750;59.842;17.584;2022-09-03T18:39:06;11.40;99.90
43143;DHT22;28750;59.842;17.584;2022-09-03T18:42:08;11.40;99.90
43143;DHT22;28750;59.842;17.584;2022-09-03T18:56:51;11.40;99.90
43143;DHT22;28750;59.842;17.584;2022-09-03T19:03:11;11.30;99.90
43143;DHT22;28750;59.842;17.584;2022-09-03T19:09:17;11.30;99.90
43143;DHT22;28750;59.842;17.584;2022-09-03T19:15:16;11.20;99.90
43143;DHT22;28750;59.842;17.584;2022-09-03T19:21:33;11.20;99.90
43143;DHT22;28750;59.842;17.584;2022-09-03T19:24:24;11.10;99.90
43143;DHT22;28750;59.842;17.584;2022-09-03T19:33:38;11.00;99.90
43143;DHT22;28750;59.842;17.584;2022-09-03T19:36:33;10.90;99.90
43143;DHT22;28750;59.842;17.584;2022-09-03T19:43:08;10.80;1.00
43143;DHT22;28750;59.842;17.584;2022-09-03T19:51:46;10.70;10.30
43143;DHT22;28750;59.842;17.584;2022-09-03T19:54:35;10.50;13.40
43143;DHT22;28750;59.842;17.584;2022-09-03T19:57:21;10.30;40.80
43143;DHT22;28750;59.842;17.584;2022-09-03T20:00:06;10.20;95.30
43143;DHT22;28750;59.842;17.584;2022-09-03T20:02:50;10.10;99.90
43143;DHT22;28750;59.842;17.584;2022-09-03T20:05:36;10.10;99.90
43143;DHT22;28750;59.842;17.584;2022-09-03T20:08:22;10.00;99.90
43143;DHT22;28750;59.842;17.584;2022-09-03T20:11:16;10.00;99.90
43143;DHT22;28750;59.842;17.584;2022-09-03T20:13:43;9.90;99.90
43143;DHT22;28750;59.842;17.584;2022-09-03T20:16:50;9.90;99.90
43143;DHT22;28750;59.842;17.584;2022-09-03T20:19:42;10.00;99.90
43143;DHT22;28750;59.842;17.584;2022-09-03T20:22:23;10.10;99.90
43143;DHT22;28750;59.842;17.584;2022-09-03T20:25:07;10.10;99.90
43143;DHT22;28750;59.842;17.584;2022-09-03T20:30:19;10.00;99.90
43143;DHT22;28750;59.842;17.584;2022-09-03T20:35:26;10.10;99.90
43143;DHT22;28750;59.842;17.584;2022-09-03T20:41:02;9.90;99.90
43143;DHT22;28750;59.842;17.584;2022-09-03T20:44:03;10.10;99.90
43143;DHT22;28750;59.842;17.584;2022-09-03T20:46:52;10.20;99.90
43143;DHT22;28750;59.842;17.584;2022-09-03T20:52:34;10.10;99.90
43143;DHT22;28750;59.842;17.584;2022-09-03T20:55:06;10.10;99.90
43143;DHT22;28750;59.842;17.584;2022-09-03T20:58:11;10.20;99.90
43143;DHT22;28750;59.842;17.584;2022-09-03T21:01:00;10.10;99.90
43143;DHT22;28750;59.842;17.584;2022-09-03T21:11:46;10.00;99.90
43143;DHT22;28750;59.842;17.584;2022-09-03T21:25:32;10.00;99.90
43143;DHT22;28750;59.842;17.584;2022-09-03T21:28:21;10.00;99.90
43143;DHT22;28750;59.842;17.584;2022-09-03T21:30:53;10.00;99.90
43143;DHT22;28750;59.842;17.584;2022-09-03T21:33:27;10.00;99.90
43143;DHT22;28750;59.842;17.584;2022-09-03T21:36:24;10.00;99.90
43143;DHT22;28750;59.842;17.584;2022-09-03T21:39:09;10.00;99.90
43143;DHT22;28750;59.842;17.584;2022-09-03T21:41:59;9.90;99.90
43143;DHT22;28750;59.842;17.584;2022-09-03T21:44:52;10.00;99.90
43143;DHT22;28750;59.842;17.584;2022-09-03T21:47:23;9.90;99.90
43143;DHT22;28750;59.842;17.584;2022-09-03T21:50:15;9.90;99.90
43143;DHT22;28750;59.842;17.584;2022-09-03T21:53:04;9.90;99.90
43143;DHT22;28750;59.842;17.584;2022-09-03T22:01:20;9.90;99.90
43143;DHT22;28750;59.842;17.584;2022-09-03T22:03:50;9.70;99.90
43143;DHT22;28750;59.842;17.584;2022-09-03T22:06:24;9.70;99.90
43143;DHT22;28750;59.842;17.584;2022-09-03T22:11:59;9.70;99.90
43143;DHT22;28750;59.842;17.584;2022-09-03T22:14:40;9.60;99.90
43143;DHT22;28750;59.842;17.584;2022-09-03T22:17:18;9.80;99.90
43143;DHT22;28750;59.842;17.584;2022-09-03T22:19:48;9.80;99.90
43143;DHT22;28750;59.842;17.584;2022-09-03T22:22:38;9.70;99.90
43143;DHT22;28750;59.842;17.584;2022-09-03T22:25:18;9.80;99.90
43143;DHT22;28750;59.842;17.584;2022-09-03T22:33:43;9.80;99.90
43143;DHT22;28750;59.842;17.584;2022-09-03T22:47:50;9.50;99.90
43143;DHT22;28750;59.842;17.584;2022-09-03T22:50:32;9.50;99.90
43143;DHT22;28750;59.842;17.584;2022-09-03T22:56:01;9.50;99.90
43143;DHT22;28750;59.842;17.584;2022-09-03T22:58:45;9.40;99.90
43143;DHT22;28750;59.842;17.584;2022-09-03T23:01:17;9.40;99.90
43143;DHT22;28750;59.842;17.584;2022-09-03T23:03:52;9.60;99.90
43143;DHT22;28750;59.842;17.584;2022-09-03T23:06:35;9.60;99.90
43143;DHT22;28750;59.842;17.584;2022-09-03T23:09:16;9.70;99.90
43143;DHT22;28750;59.842;17.584;2022-09-03T23:11:55;9.60;99.90